Time;durP1;ratioP1;P1;durP2;ratioP2;P2;SDS_P1;SDS_P2;PMS_P1;PMS_P2;Temp;Humidity;BMP_temperature;BMP_pressure;BME280_temperature;BME280_humidity;BME280_pressure;Samples;Min_cycle;Max_cycle;Signal;HPM_P1;HPM_P2
2021/09/17 00:01:36;;;;;;;6.63;4.70;;;;;;;11.95;100.00;98934.59;5054035;28;20059;-70
2021/09/17 00:04:01;;;;;;;13.32;4.40;;;;;;;11.98;100.00;98930.63;5053262;28;20029;-70
2021/09/17 00:06:27;;;;;;;5.68;4.38;;;;;;;12.02;100.00;98927.25;5053185;28;20033;-69
2021/09/17 00:08:52;;;;;;;9.05;4.75;;;;;;;12.06;100.00;98925.81;5047882;28;20029;-70
2021/09/17 00:11:18;;;;;;;10.48;4.63;;;;;;;12.08;100.00;98933.75;5049260;28;20111;-69
2021/09/17 00:13:43;;;;;;;7.32;4.13;;;;;;;12.05;100.00;98926.84;5058342;28;20028;-70
2021/09/17 00:16:09;;;;;;;7.25;4.22;;;;;;;11.90;100.00;98912.69;5053437;28;20064;-70
2021/09/17 00:18:34;;;;;;;5.50;4.13;;;;;;;11.99;100.00;98919.53;5053268;28;20024;-70
2021/09/17 00:21:00;;;;;;;7.40;3.60;;;;;;;11.97;100.00;98920.78;5053419;28;20021;-70
2021/09/17 00:23:25;;;;;;;7.25;4.10;;;;;;;11.86;100.00;98892.44;5055144;28;20111;-70
2021/09/17 00:25:50;;;;;;;7.18;4.30;;;;;;;12.00;100.00;98904.97;5053409;28;20505;-70
2021/09/17 00:28:16;;;;;;;10.68;5.20;;;;;;;12.01;100.00;98908.50;5035523;28;20029;-70
2021/09/17 00:30:42;;;;;;;8.23;4.60;;;;;;;12.13;100.00;98908.69;5043731;28;20403;-70
2021/09/17 00:33:07;;;;;;;11.07;4.85;;;;;;;12.00;100.00;98893.28;5053251;28;20429;-69
2021/09/17 00:35:32;;;;;;;8.88;4.88;;;;;;;12.14;100.00;98896.81;5053128;28;20028;-69
2021/09/17 00:37:57;;;;;;;8.63;4.80;;;;;;;12.16;100.00;98906.41;5052314;28;20037;-70
2021/09/17 00:40:23;;;;;;;7.20;4.88;;;;;;;12.13;100.00;98900.53;5052275;28;20079;-69
2021/09/17 00:42:49;;;;;;;12.73;4.82;;;;;;;12.12;100.00;98907.03;5052358;28;20152;-69
2021/09/17 00:45:14;;;;;;;5.85;4.03;;;;;;;12.11;100.00;98913.50;5063135;28;20036;-70
2021/09/17 00:47:41;;;;;;;7.88;4.72;;;;;;;12.07;100.00;98910.38;5052629;28;20029;-69
2021/09/17 00:50:09;;;;;;;12.02;4.60;;;;;;;11.99;100.00;98908.69;5053026;28;20076;-69
2021/09/17 00:52:35;;;;;;;8.95;5.32;;;;;;;11.80;100.00;98885.94;5052303;28;20044;-69
2021/09/17 00:55:00;;;;;;;6.10;4.68;;;;;;;12.03;100.00;98909.97;5049013;28;20025;-69
2021/09/17 00:57:26;;;;;;;9.45;4.57;;;;;;;12.00;100.00;98891.41;5049366;28;20044;-69
2021/09/17 00:59:51;;;;;;;9.80;4.32;;;;;;;12.17;100.00;98901.81;5052215;28;20025;-69
2021/09/17 01:02:16;;;;;;;6.28;4.45;;;;;;;12.13;100.00;98904.13;5054740;28;20051;-70
2021/09/17 01:04:42;;;;;;;12.27;4.30;;;;;;;12.04;100.00;98898.06;5055654;28;20104;-69
2021/09/17 01:07:08;;;;;;;6.53;3.70;;;;;;;12.03;100.00;98907.25;5054992;28;20090;-69
2021/09/17 01:09:33;;;;;;;7.45;4.15;;;;;;;11.96;100.00;98892.84;5038020;28;20029;-70
2021/09/17 01:12:03;;;;;;;7.22;4.25;;;;;;;12.00;100.00;98904.97;5040819;28;20029;-69
2021/09/17 01:14:30;;;;;;;8.30;4.75;;;;;;;11.97;100.00;98888.25;5056629;28;20021;-69
2021/09/17 01:16:56;;;;;;;5.72;4.97;;;;;;;12.00;100.00;98898.72;5057113;28;20021;-70
2021/09/17 01:19:21;;;;;;;7.15;4.50;;;;;;;11.88;100.00;98884.13;5055433;28;20374;-70
2021/09/17 01:21:49;;;;;;;13.50;4.80;;;;;;;11.96;100.00;98902.88;5057827;28;20059;-69
2021/09/17 01:24:15;;;;;;;11.70;4.90;;;;;;;12.02;100.00;98902.03;5055148;28;20024;-69
2021/09/17 01:26:40;;;;;;;9.27;4.93;;;;;;;11.99;100.00;98887.00;5052325;28;20104;-69
2021/09/17 01:29:05;;;;;;;5.70;4.47;;;;;;;12.02;100.00;98899.31;5046732;28;20103;-70
2021/09/17 01:31:30;;;;;;;7.65;4.70;;;;;;;11.86;100.00;98859.91;5056841;28;20394;-70
2021/09/17 01:34:06;;;;;;;7.53;4.53;;;;;;;12.16;100.00;98906.41;5054928;28;20025;-70
2021/09/17 01:36:31;;;;;;;5.28;4.32;;;;;;;12.15;100.00;98898.47;5056481;28;20033;-70
2021/09/17 01:38:57;;;;;;;17.17;4.70;;;;;;;12.18;100.00;98892.59;5056089;28;20019;-70
2021/09/17 01:41:22;;;;;;;7.28;4.55;;;;;;;12.13;100.00;98886.97;5049940;28;20025;-70
2021/09/17 01:43:47;;;;;;;12.93;5.93;;;;;;;12.09;100.00;98880.34;5034855;28;20089;-70
2021/09/17 01:46:12;;;;;;;7.90;5.50;;;;;;;12.20;100.00;98893.25;5038447;28;20084;-69
2021/09/17 01:48:38;;;;;;;9.18;5.00;;;;;;;12.20;100.00;98891.34;5055742;28;20028;-70
2021/09/17 01:51:03;;;;;;;12.15;5.50;;;;;;;12.24;100.00;98886.34;5055708;28;20067;-70
2021/09/17 01:53:28;;;;;;;7.25;4.85;;;;;;;12.26;100.00;98893.25;5055727;28;20028;-70
2021/09/17 01:55:54;;;;;;;13.43;5.50;;;;;;;12.36;100.00;98892.78;5054873;28;20033;-70
2021/09/17 01:58:19;;;;;;;8.77;4.82;;;;;;;12.36;100.00;98884.63;5039790;28;20037;-69
2021/09/17 02:00:45;;;;;;;6.05;4.20;;;;;;;12.41;100.00;98884.84;5050389;28;20041;-70
2021/09/17 02:03:10;;;;;;;10.88;5.00;;;;;;;12.28;100.00;98868.59;5046667;28;20057;-70
2021/09/17 02:05:35;;;;;;;8.93;4.95;;;;;;;12.17;100.00;98855.69;5055945;28;20087;-70
2021/09/17 02:08:00;;;;;;;12.00;4.88;;;;;;;12.29;100.00;98870.28;5055735;28;20025;-70
2021/09/17 02:10:26;;;;;;;13.68;4.68;;;;;;;12.27;100.00;98872.38;5047031;28;20029;-70
2021/09/17 02:12:51;;;;;;;7.95;5.15;;;;;;;12.45;100.00;98877.94;5051041;28;20043;-70
2021/09/17 02:15:17;;;;;;;6.63;4.30;;;;;;;12.37;100.00;98869.22;5053511;28;20100;-70
2021/09/17 02:17:42;;;;;;;9.18;5.20;;;;;;;12.36;100.00;98876.50;5038275;28;20071;-70
2021/09/17 02:20:08;;;;;;;12.85;5.10;;;;;;;12.32;100.00;98872.56;5051575;28;20025;-70
2021/09/17 02:22:34;;;;;;;6.55;4.38;;;;;;;12.34;100.00;98862.34;5052061;28;20395;-70
2021/09/17 02:25:00;;;;;;;7.55;4.97;;;;;;;12.33;100.00;98859.81;5044098;28;20021;-70
2021/09/17 02:27:26;;;;;;;13.48;5.70;;;;;;;12.24;100.00;98848.38;5053774;28;20123;-70
2021/09/17 02:29:51;;;;;;;10.20;5.53;;;;;;;12.34;100.00;98867.75;5047169;28;20503;-70
2021/09/17 02:32:16;;;;;;;8.55;5.30;;;;;;;12.27;100.00;98851.50;5057956;28;20034;-70
2021/09/17 02:34:42;;;;;;;7.18;5.45;;;;;;;12.37;100.00;98867.31;5061702;28;20040;-70
2021/09/17 02:37:07;;;;;;;8.05;4.80;;;;;;;12.34;100.00;98854.19;5054413;28;20124;-70
2021/09/17 02:39:33;;;;;;;7.18;4.97;;;;;;;12.38;100.00;98852.72;5054158;28;20122;-70
2021/09/17 02:41:58;;;;;;;8.65;5.00;;;;;;;12.38;100.00;98863.56;5054465;28;20021;-70
2021/09/17 02:44:24;;;;;;;8.25;6.00;;;;;;;12.24;100.00;98838.34;5055204;28;20114;-71
2021/09/17 02:46:49;;;;;;;7.47;5.43;;;;;;;12.40;100.00;98856.03;5054526;28;20139;-70
2021/09/17 02:49:14;;;;;;;6.97;5.00;;;;;;;12.40;100.00;98845.19;5054912;28;20044;-70
2021/09/17 02:51:39;;;;;;;7.30;5.40;;;;;;;12.45;100.00;98858.13;5054712;28;20029;-70
2021/09/17 02:54:05;;;;;;;8.77;5.70;;;;;;;12.46;100.00;98851.63;5050865;28;20036;-70
2021/09/17 02:56:30;;;;;;;11.15;5.80;;;;;;;12.44;100.00;98845.59;5054846;28;20024;-70
2021/09/17 02:58:55;;;;;;;8.40;6.30;;;;;;;12.23;100.00;98833.13;5054973;28;20032;-70
2021/09/17 03:01:21;;;;;;;7.78;5.75;;;;;;;12.41;100.00;98857.69;5054603;28;20384;-70
2021/09/17 03:03:46;;;;;;;8.70;5.80;;;;;;;12.38;100.00;98839.13;5054342;28;20059;-70
2021/09/17 03:06:11;;;;;;;7.50;5.93;;;;;;;12.39;100.00;98853.53;5041534;28;20029;-70
2021/09/17 03:08:37;;;;;;;16.55;6.60;;;;;;;12.34;100.00;98846.06;5047703;28;20024;-70
2021/09/17 03:11:02;;;;;;;8.85;6.07;;;;;;;12.27;100.00;98846.06;5055012;28;20481;-69
2021/09/17 03:13:28;;;;;;;10.18;6.13;;;;;;;12.23;100.00;98849.41;5036695;28;20021;-70
2021/09/17 03:15:54;;;;;;;10.68;6.40;;;;;;;12.14;100.00;98856.94;5054362;28;20077;-70
2021/09/17 03:18:20;;;;;;;7.85;6.18;;;;;;;12.09;100.00;98850.50;5034888;28;20062;-70
2021/09/17 03:20:48;;;;;;;9.07;5.95;;;;;;;12.08;100.00;98855.09;5043882;28;20037;-70
2021/09/17 03:23:13;;;;;;;8.85;5.93;;;;;;;11.96;100.00;98849.47;5045700;28;20037;-70
2021/09/17 03:25:39;;;;;;;12.55;6.22;;;;;;;11.89;100.00;98853.22;5052911;28;20462;-70
2021/09/17 03:28:04;;;;;;;13.05;6.55;;;;;;;11.78;100.00;98844.66;5035943;28;20517;-69
2021/09/17 03:30:30;;;;;;;16.90;7.25;;;;;;;11.72;100.00;98842.81;5055146;28;20029;-70
2021/09/17 03:32:55;;;;;;;16.13;7.82;;;;;;;11.61;100.00;98819.88;5049367;28;20024;-70
2021/09/17 03:35:21;;;;;;;14.60;7.55;;;;;;;11.64;100.00;98845.72;5045449;28;20027;-70
2021/09/17 03:37:46;;;;;;;14.98;7.50;;;;;;;11.62;100.00;98839.69;5053888;28;20086;-70
2021/09/17 03:40:12;;;;;;;11.52;7.75;;;;;;;11.47;100.00;98826.34;5038819;28;20025;-70
2021/09/17 03:42:37;;;;;;;11.13;7.43;;;;;;;11.55;100.00;98844.25;5050692;28;20029;-71
2021/09/17 03:45:04;;;;;;;9.77;6.38;;;;;;;11.45;100.00;98828.44;5052650;28;20410;-70
2021/09/17 03:47:30;;;;;;;12.70;6.82;;;;;;;11.45;100.00;98843.84;5054269;28;20096;-70
2021/09/17 03:49:55;;;;;;;10.55;7.05;;;;;;;11.46;100.00;98843.66;5035269;28;20116;-70
2021/09/17 03:52:20;;;;;;;12.75;7.05;;;;;;;11.31;100.00;98848.41;5053442;28;20036;-69
2021/09/17 03:54:46;;;;;;;13.05;6.82;;;;;;;11.25;100.00;98847.38;5035783;28;20028;-70
2021/09/17 03:57:13;;;;;;;11.18;6.93;;;;;;;11.02;100.00;98826.09;5053922;28;20485;-70
2021/09/17 03:59:38;;;;;;;14.02;7.00;;;;;;;11.07;100.00;98839.03;5036111;28;20055;-70
2021/09/17 04:02:04;;;;;;;13.63;6.80;;;;;;;10.96;100.00;98848.59;5035707;28;20467;-70
2021/09/17 04:04:29;;;;;;;12.88;6.78;;;;;;;10.89;100.00;98851.25;5052917;28;20190;-70
2021/09/17 04:06:55;;;;;;;12.15;6.68;;;;;;;10.82;100.00;98842.31;5053514;28;20028;-70
2021/09/17 04:09:20;;;;;;;9.73;7.07;;;;;;;10.77;100.00;98838.53;5053868;28;20158;-70
2021/09/17 04:11:45;;;;;;;9.25;6.10;;;;;;;10.63;100.00;98846.59;5051366;28;20021;-70
2021/09/17 04:14:11;;;;;;;9.63;6.50;;;;;;;10.52;100.00;98844.47;5045312;28;20104;-71
2021/09/17 04:16:37;;;;;;;15.02;7.72;;;;;;;10.41;100.00;98818.84;5038295;28;20021;-73
2021/09/17 04:19:03;;;;;;;10.57;7.35;;;;;;;10.66;100.00;98850.78;5051277;28;20078;-72
2021/09/17 04:21:28;;;;;;;15.68;7.85;;;;;;;10.66;100.00;98843.50;5052834;28;20490;-73
2021/09/17 04:23:53;;;;;;;11.73;7.28;;;;;;;10.66;100.00;98842.66;5052645;28;20112;-73
2021/09/17 04:26:20;;;;;;;11.35;7.13;;;;;;;10.66;100.00;98854.34;5053070;28;20024;-74
2021/09/17 04:28:45;;;;;;;12.68;6.75;;;;;;;10.60;100.00;98848.88;5052671;28;20052;-73
2021/09/17 04:31:10;;;;;;;12.77;7.20;;;;;;;10.41;100.00;98816.16;5052763;28;20040;-75
2021/09/17 04:33:36;;;;;;;13.82;7.55;;;;;;;10.61;100.00;98850.53;5053895;28;20534;-75
2021/09/17 04:36:01;;;;;;;11.52;7.28;;;;;;;10.62;100.00;98847.66;5071535;28;20029;-73
2021/09/17 04:38:26;;;;;;;11.65;6.93;;;;;;;10.50;100.00;98823.03;5069597;28;20021;-74
2021/09/17 04:40:52;;;;;;;11.93;6.85;;;;;;;10.82;100.00;98852.28;5053318;28;20021;-74
2021/09/17 04:43:17;;;;;;;12.85;7.70;;;;;;;10.91;100.00;98857.31;5052672;28;20394;-72
2021/09/17 04:45:42;;;;;;;11.98;7.60;;;;;;;10.83;100.00;98832.31;5039728;28;20493;-74
2021/09/17 04:48:10;;;;;;;11.88;7.47;;;;;;;10.91;100.00;98853.78;5052772;28;20475;-74
2021/09/17 04:50:35;;;;;;;11.95;8.00;;;;;;;11.03;100.00;98844.03;5054022;28;20063;-74
2021/09/17 04:53:04;;;;;;;13.00;7.47;;;;;;;11.06;100.00;98843.59;5048402;28;20052;-74
2021/09/17 04:55:29;;;;;;;10.20;7.60;;;;;;;11.25;100.00;98846.56;5053646;28;20029;-73
2021/09/17 04:57:54;;;;;;;12.00;7.47;;;;;;;11.17;100.00;98829.44;5043688;28;20683;-76
2021/09/17 05:00:20;;;;;;;10.75;7.40;;;;;;;11.15;100.00;98826.09;5035416;28;20112;-76
2021/09/17 05:02:45;;;;;;;13.13;8.00;;;;;;;11.30;100.00;98855.72;5040270;28;20049;-69
2021/09/17 05:05:11;;;;;;;15.13;7.82;;;;;;;11.19;100.00;98829.25;5039877;28;20188;-68
2021/09/17 05:07:36;;;;;;;13.30;7.68;;;;;;;11.35;100.00;98849.69;5056867;28;20036;-70
2021/09/17 05:10:03;;;;;;;14.40;7.28;;;;;;;11.35;100.00;98850.53;5050637;28;20108;-69
2021/09/17 05:12:28;;;;;;;15.25;7.35;;;;;;;11.34;100.00;98840.72;5059972;28;21808;-70
2021/09/17 05:14:54;;;;;;;14.75;7.18;;;;;;;11.46;100.00;98843.66;5052388;28;20071;-68
2021/09/17 05:17:19;;;;;;;9.50;6.78;;;;;;;11.35;100.00;98836.97;5038478;28;20022;-70
2021/09/17 05:19:44;;;;;;;12.15;6.63;;;;;;;11.45;100.00;98850.13;5050094;28;20406;-78
2021/09/17 05:22:10;;;;;;;15.38;6.90;;;;;;;11.50;100.00;98857.59;5055719;28;20025;-77
2021/09/17 05:24:35;;;;;;;11.13;6.72;;;;;;;11.51;100.00;98851.16;5065575;28;20029;-77
2021/09/17 05:27:01;;;;;;;8.85;5.90;;;;;;;11.56;100.00;98857.59;5042390;28;20039;-74
2021/09/17 05:29:26;;;;;;;12.27;6.22;;;;;;;11.57;100.00;98856.56;5044191;28;20029;-73
2021/09/17 05:31:51;;;;;;;8.52;5.90;;;;;;;11.71;100.00;98857.41;5040830;28;20105;-74
2021/09/17 05:34:17;;;;;;;11.07;7.25;;;;;;;11.55;100.00;98837.00;5052453;28;20021;-74
2021/09/17 05:36:43;;;;;;;11.73;6.70;;;;;;;11.76;100.00;98848.63;5056623;28;20498;-75
2021/09/17 05:39:08;;;;;;;10.90;6.50;;;;;;;11.82;100.00;98861.34;5039449;28;20060;-71
2021/09/17 05:41:34;;;;;;;12.40;6.40;;;;;;;11.88;100.00;98863.25;5039265;28;20492;-71
2021/09/17 05:43:59;;;;;;;11.73;6.88;;;;;;;11.73;100.00;98833.63;5051077;28;20043;-71
2021/09/17 05:46:24;;;;;;;15.98;7.68;;;;;;;12.00;100.00;98861.56;5051602;28;20039;-71
2021/09/17 05:48:50;;;;;;;10.43;6.95;;;;;;;11.98;100.00;98849.28;5053482;28;20028;-71
2021/09/17 05:51:15;;;;;;;10.80;6.93;;;;;;;12.09;100.00;98864.88;5055686;28;20047;-71
2021/09/17 05:53:40;;;;;;;11.85;6.60;;;;;;;12.03;100.00;98849.47;5049191;28;20017;-70
2021/09/17 05:56:06;;;;;;;11.70;6.55;;;;;;;12.01;100.00;98852.38;5054927;28;20462;-71
2021/09/17 05:58:32;;;;;;;13.43;7.03;;;;;;;12.14;100.00;98867.81;5055794;28;20102;-73
2021/09/17 06:00:58;;;;;;;10.32;6.65;;;;;;;12.11;100.00;98851.97;5038183;28;20119;-72
2021/09/17 06:03:23;;;;;;;13.98;7.97;;;;;;;12.22;100.00;98862.16;5055271;28;20108;-75
2021/09/17 06:05:49;;;;;;;10.73;7.10;;;;;;;12.32;100.00;98859.00;5038427;28;20045;-73
2021/09/17 06:08:14;;;;;;;10.82;6.38;;;;;;;12.46;100.00;98857.06;5053046;28;20025;-75
2021/09/17 06:10:39;;;;;;;10.27;7.00;;;;;;;12.62;100.00;98858.47;5041030;28;20025;-79
2021/09/17 06:13:05;;;;;;;10.93;6.43;;;;;;;12.46;100.00;98819.06;5061709;28;20021;-75
2021/09/17 06:15:30;;;;;;;8.20;5.88;;;;;;;12.78;100.00;98847.09;5027601;28;20029;-69
2021/09/17 06:17:55;;;;;;;10.63;6.50;;;;;;;12.89;100.00;98848.31;5055040;28;20086;-68
2021/09/17 06:20:21;;;;;;;9.82;5.95;;;;;;;12.90;100.00;98849.97;5050959;28;20029;-67
2021/09/17 06:22:46;;;;;;;12.90;5.97;;;;;;;13.00;100.00;98857.66;5053347;28;20060;-68
2021/09/17 06:25:15;;;;;;;9.73;6.55;;;;;;;13.00;100.00;98849.53;5053514;28;20033;-68
2021/09/17 06:27:41;;;;;;;9.50;5.93;;;;;;;13.07;100.00;98855.72;5052018;28;20031;-68
2021/09/17 06:30:07;;;;;;;13.75;7.00;;;;;;;13.14;100.00;98861.97;5055069;28;20032;-68
2021/09/17 06:32:32;;;;;;;15.15;6.68;;;;;;;13.16;99.81;98855.25;5050009;28;20702;-68
2021/09/17 06:34:58;;;;;;;14.95;7.55;;;;;;;13.20;99.04;98861.06;5051108;28;20519;-68
2021/09/17 06:37:23;;;;;;;10.05;6.32;;;;;;;13.31;99.07;98860.41;5035006;28;20079;-68
2021/09/17 06:39:49;;;;;;;10.88;6.85;;;;;;;13.43;99.06;98863.25;5044809;28;20021;-68
2021/09/17 06:42:14;;;;;;;9.45;6.68;;;;;;;13.48;97.83;98862.59;5036891;28;20116;-68
2021/09/17 06:44:39;;;;;;;10.68;6.38;;;;;;;13.63;97.52;98857.66;5054541;28;20033;-68
2021/09/17 06:47:05;;;;;;;12.98;7.00;;;;;;;13.63;96.19;98863.09;5054924;28;20036;-68
2021/09/17 06:49:30;;;;;;;9.82;6.82;;;;;;;13.62;96.73;98856.00;5050439;28;20028;-68
2021/09/17 06:51:55;;;;;;;11.35;6.65;;;;;;;13.71;96.12;98857.38;5036590;28;20099;-68
2021/09/17 06:54:21;;;;;;;8.85;6.72;;;;;;;13.84;96.31;98874.66;5039364;28;20115;-68
2021/09/17 06:56:48;;;;;;;7.97;6.63;;;;;;;13.79;95.17;98854.38;5069196;28;20027;-69
2021/09/17 06:59:13;;;;;;;10.75;7.07;;;;;;;13.88;94.59;98852.19;5072912;28;20054;-67
2021/09/17 07:01:40;;;;;;;11.25;6.95;;;;;;;13.99;93.85;98869.69;5075692;28;20029;-69
2021/09/17 07:04:22;;;;;;;12.52;6.28;;;;;;;13.96;94.24;98867.41;5071682;28;20028;-69
2021/09/17 07:06:53;;;;;;;9.50;6.60;;;;;;;14.13;92.77;98876.66;5074007;28;20024;-69
2021/09/17 07:09:28;;;;;;;10.98;6.18;;;;;;;14.19;91.65;98867.59;5059638;28;20047;-69
2021/09/17 07:12:03;;;;;;;10.55;6.82;;;;;;;14.00;92.09;98868.63;5076285;28;20021;-69
2021/09/17 07:14:29;;;;;;;9.93;6.55;;;;;;;14.03;92.92;98873.63;5048656;28;20399;-70
2021/09/17 07:16:54;;;;;;;10.02;6.57;;;;;;;14.14;93.19;98867.44;5039119;28;20020;-70
2021/09/17 07:19:20;;;;;;;8.57;6.05;;;;;;;14.37;91.83;98866.78;5054189;28;20025;-70
2021/09/17 07:21:45;;;;;;;9.88;6.78;;;;;;;14.43;90.64;98874.03;5035319;28;20094;-69
2021/09/17 07:24:10;;;;;;;13.90;6.63;;;;;;;14.55;90.78;98874.16;5050903;28;20029;-70
2021/09/17 07:26:36;;;;;;;12.05;6.40;;;;;;;14.71;90.45;98872.69;5046717;28;20456;-70
2021/09/17 07:29:01;;;;;;;14.93;6.80;;;;;;;14.83;90.41;98873.59;5040215;28;20107;-69
2021/09/17 07:31:26;;;;;;;8.30;6.13;;;;;;;14.93;90.47;98869.50;5053702;28;20021;-69
2021/09/17 07:33:52;;;;;;;8.80;5.97;;;;;;;15.04;89.77;98875.00;5053176;28;20096;-69
2021/09/17 07:36:17;;;;;;;12.15;6.43;;;;;;;14.96;88.46;98858.97;5036144;28;20029;-70
2021/09/17 07:38:42;;;;;;;9.80;6.05;;;;;;;15.31;87.96;98874.63;5033315;28;20021;-69
2021/09/17 07:41:08;;;;;;;9.00;6.45;;;;;;;15.33;85.91;98861.59;5047858;28;20037;-70
2021/09/17 07:43:33;;;;;;;8.25;6.57;;;;;;;15.51;84.77;98866.97;5049806;28;20120;-69
2021/09/17 07:45:58;;;;;;;12.10;6.20;;;;;;;15.76;83.00;98868.69;5052825;28;20143;-69
2021/09/17 07:48:24;;;;;;;11.45;5.88;;;;;;;15.71;82.26;98866.66;5051906;28;20027;-69
2021/09/17 07:50:49;;;;;;;11.32;5.95;;;;;;;15.75;82.56;98876.06;5052838;28;20090;-70
2021/09/17 07:53:14;;;;;;;7.65;6.03;;;;;;;16.05;81.73;98874.28;5052463;28;20414;-69
2021/09/17 07:55:40;;;;;;;12.05;6.22;;;;;;;15.99;80.05;98857.81;5044356;28;20017;-71
2021/09/17 07:58:05;;;;;;;8.32;5.82;;;;;;;16.12;81.08;98862.19;5049738;28;20025;-68
2021/09/17 08:00:31;;;;;;;8.20;5.97;;;;;;;16.50;79.81;98876.41;5049731;28;20017;-68
2021/09/17 08:02:56;;;;;;;11.93;6.20;;;;;;;16.64;77.57;98867.69;5031250;28;20029;-68
2021/09/17 08:05:21;;;;;;;11.05;6.30;;;;;;;16.76;77.71;98873.13;5036564;28;20016;-68
2021/09/17 08:07:47;;;;;;;11.80;7.00;;;;;;;16.48;79.18;98881.25;5052334;28;20078;-68
2021/09/17 08:10:12;;;;;;;13.60;6.30;;;;;;;16.78;78.02;98867.47;5052270;28;20028;-69
2021/09/17 08:12:38;;;;;;;10.93;7.03;;;;;;;16.93;76.37;98862.31;5051546;28;20017;-69
2021/09/17 08:15:05;;;;;;;12.88;6.75;;;;;;;16.82;77.10;98860.41;5044870;28;20041;-69
2021/09/17 08:17:31;;;;;;;8.40;6.22;;;;;;;16.99;75.61;98865.97;5032898;28;20104;-67
2021/09/17 08:19:56;;;;;;;8.88;6.60;;;;;;;17.17;74.90;98871.22;5032378;28;20064;-69
2021/09/17 08:22:21;;;;;;;10.43;6.32;;;;;;;17.43;73.11;98872.53;5034993;28;20112;-69
2021/09/17 08:24:47;;;;;;;10.00;5.65;;;;;;;17.38;73.67;98871.63;5048802;28;20025;-68
2021/09/17 08:27:12;;;;;;;7.85;6.47;;;;;;;17.59;71.90;98870.91;5032109;28;20028;-68
2021/09/17 08:29:37;;;;;;;10.63;6.03;;;;;;;17.51;72.92;98863.91;5034172;28;20534;-69
2021/09/17 08:32:03;;;;;;;8.48;5.85;;;;;;;17.81;71.13;98868.28;5040636;28;20053;-69
2021/09/17 08:34:28;;;;;;;11.82;5.88;;;;;;;18.14;70.14;98861.13;5031599;28;20539;-69
2021/09/17 08:36:54;;;;;;;9.68;5.70;;;;;;;17.97;70.42;98861.13;5032286;28;20083;-69
2021/09/17 08:39:19;;;;;;;7.60;5.80;;;;;;;17.82;70.93;98861.75;5031950;28;20053;-67
2021/09/17 08:41:45;;;;;;;9.77;5.35;;;;;;;18.11;69.45;98869.84;5039458;28;20029;-67
2021/09/17 08:44:11;;;;;;;10.98;6.32;;;;;;;18.78;67.27;98853.22;5042692;28;20544;-68
2021/09/17 08:46:42;;;;;;;11.30;5.60;;;;;;;18.48;67.36;98872.84;5039999;28;20025;-88
2021/09/17 08:49:09;;;;;;;9.80;5.93;;;;;;;18.62;67.86;98852.19;5043818;28;20025;-75
2021/09/17 08:51:35;;;;;;;10.20;5.65;;;;;;;19.34;65.46;98869.50;5053872;28;20036;-76
2021/09/17 08:54:03;;;;;;;8.13;5.47;;;;;;;19.24;64.98;98870.22;5051871;28;20021;-73
2021/09/17 08:56:28;;;;;;;9.82;5.38;;;;;;;19.27;64.41;98850.50;5037472;28;20456;-70
2021/09/17 08:58:54;;;;;;;8.98;5.13;;;;;;;19.41;64.08;98867.38;5031979;28;20116;-68
2021/09/17 09:01:31;;;;;;;8.02;5.68;;;;;;;19.68;63.90;98869.31;5035910;28;20032;-69
2021/09/17 09:04:00;;;;;;;10.48;6.25;;;;;;;20.17;62.36;98849.88;5038375;28;20501;-69
2021/09/17 09:06:26;;;;;;;7.43;4.95;;;;;;;20.95;59.50;98841.78;5043630;28;20075;-69
2021/09/17 09:08:52;;;;;;;7.20;4.85;;;;;;;21.52;57.92;98839.16;5051368;28;20029;-70
2021/09/17 09:11:23;;;;;;;7.72;5.07;;;;;;;21.74;57.80;98858.16;5042390;28;20035;-70
2021/09/17 09:14:21;;;;;;;6.97;4.97;;;;;;;22.09;55.15;98852.66;5039393;28;20026;-69
2021/09/17 09:16:51;;;;;;;6.65;4.90;;;;;;;22.65;54.03;98859.97;4991163;28;20045;-71
2021/09/17 09:19:18;;;;;;;6.35;4.70;;;;;;;21.65;54.81;98853.22;5046048;28;20079;-68
2021/09/17 09:21:43;;;;;;;7.53;5.00;;;;;;;22.26;54.31;98846.84;5042677;28;20449;-77
2021/09/17 09:24:10;;;;;;;9.70;5.55;;;;;;;22.51;53.33;98848.72;5040306;28;20029;-76
2021/09/17 09:26:36;;;;;;;8.02;5.47;;;;;;;21.74;54.63;98847.97;5019289;28;20098;-71
2021/09/17 09:29:02;;;;;;;6.57;5.10;;;;;;;22.56;54.45;98852.56;5052988;28;20033;-71
2021/09/17 09:31:39;;;;;;;7.55;4.80;;;;;;;23.48;51.20;98849.38;5049418;28;20099;-71
2021/09/17 09:34:04;;;;;;;10.40;4.80;;;;;;;24.10;49.04;98831.19;5036833;28;20025;-71
2021/09/17 09:36:34;;;;;;;7.45;5.70;;;;;;;25.09;47.68;98838.06;5050282;28;20044;-71
2021/09/17 09:39:00;;;;;;;7.07;5.13;;;;;;;25.75;45.41;98834.34;5054356;28;20029;-71
2021/09/17 09:41:31;;;;;;;7.72;5.38;;;;;;;26.02;44.96;98830.03;5044733;28;20039;-71
2021/09/17 09:44:16;;;;;;;10.10;5.32;;;;;;;25.67;45.95;98826.69;5055003;28;20553;-71
2021/09/17 09:46:46;;;;;;;7.50;5.10;;;;;;;25.69;45.52;98818.09;5053627;28;20052;-71
2021/09/17 09:49:14;;;;;;;6.05;4.78;;;;;;;25.10;47.29;98823.94;5040814;28;20052;-73
2021/09/17 09:52:06;;;;;;;8.70;5.25;;;;;;;24.84;47.12;98829.00;5039556;28;20030;-71
2021/09/17 09:54:32;;;;;;;11.75;5.63;;;;;;;24.80;46.97;98824.34;5048836;28;20045;-72
2021/09/17 09:56:59;;;;;;;8.15;4.93;;;;;;;25.09;46.42;98821.47;5063833;28;20032;-70
2021/09/17 09:59:30;;;;;;;7.82;4.13;;;;;;;25.92;44.16;98811.63;5055089;28;20075;-71
2021/09/17 10:02:01;;;;;;;8.50;4.50;;;;;;;25.10;45.56;98818.41;5044574;28;20021;-70
2021/09/17 10:04:27;;;;;;;8.18;4.20;;;;;;;25.98;44.04;98807.63;5034878;28;20106;-71
2021/09/17 10:07:05;;;;;;;7.10;4.85;;;;;;;25.61;44.60;98802.97;5047373;28;20027;-71
2021/09/17 10:09:32;;;;;;;5.75;4.38;;;;;;;25.94;43.56;98809.38;5044718;28;20055;-71
2021/09/17 10:12:01;;;;;;;5.82;4.90;;;;;;;25.08;45.42;98795.72;5051849;28;20494;-75
2021/09/17 10:14:28;;;;;;;11.02;5.15;;;;;;;24.37;45.52;98785.56;5041791;28;20021;-71
2021/09/17 10:16:56;;;;;;;6.60;4.90;;;;;;;24.15;46.98;98803.47;5050148;28;20036;-71
2021/09/17 10:19:22;;;;;;;7.13;4.20;;;;;;;24.28;48.48;98807.50;5030851;28;20560;-72
2021/09/17 10:21:58;;;;;;;7.90;4.45;;;;;;;26.92;41.50;98813.03;5045221;28;20049;-70
2021/09/17 10:24:26;;;;;;;6.28;3.63;;;;;;;26.89;42.25;98801.41;5043225;28;20074;-71
2021/09/17 10:27:02;;;;;;;5.25;3.63;;;;;;;25.42;45.12;98802.19;5051711;28;20039;-70
2021/09/17 10:29:36;;;;;;;7.35;4.43;;;;;;;24.19;46.28;98803.75;5033742;28;20049;-70
2021/09/17 10:32:02;;;;;;;6.32;4.40;;;;;;;23.39;48.98;98803.03;5051951;28;20036;-71
2021/09/17 10:34:43;;;;;;;9.68;4.55;;;;;;;22.99;49.88;98803.31;5047400;28;20036;-71
2021/09/17 10:37:09;;;;;;;9.55;4.15;;;;;;;23.25;49.05;98784.66;5039083;28;20082;-71
2021/09/17 10:39:36;;;;;;;6.13;4.28;;;;;;;22.89;50.38;98788.41;5036781;28;20104;-71
2021/09/17 10:42:07;;;;;;;7.65;4.28;;;;;;;22.80;50.09;98806.69;5040927;28;20064;-70
2021/09/17 10:45:01;;;;;;;8.35;3.92;;;;;;;22.64;49.20;98808.69;5041950;28;20025;-73
2021/09/17 10:47:38;;;;;;;7.55;4.38;;;;;;;22.45;49.43;98803.00;5051249;28;20025;-73
2021/09/17 10:50:04;;;;;;;6.75;3.67;;;;;;;22.63;49.09;98793.25;5037185;28;20128;-71
2021/09/17 10:52:38;;;;;;;6.82;3.88;;;;;;;22.69;49.38;98794.88;5044721;28;20049;-71
2021/09/17 10:55:04;;;;;;;9.93;3.60;;;;;;;22.14;49.42;98782.09;5051248;28;20817;-71
2021/09/17 10:57:29;;;;;;;6.35;4.00;;;;;;;22.42;49.16;98798.00;5032980;28;20116;-71
2021/09/17 10:59:54;;;;;;;5.90;3.38;;;;;;;22.45;49.41;98763.53;5047062;28;20040;-70
2021/09/17 11:02:39;;;;;;;8.15;3.00;;;;;;;22.12;48.43;98787.06;5034023;28;20053;-72
2021/09/17 11:05:15;;;;;;;4.78;2.75;;;;;;;22.85;48.80;98789.28;5047154;28;20478;-71
2021/09/17 11:07:41;;;;;;;5.88;2.80;;;;;;;23.03;47.23;98790.59;5050763;28;20112;-71
2021/09/17 11:10:25;;;;;;;9.63;2.85;;;;;;;22.70;48.25;98782.72;5044861;28;20043;-71
2021/09/17 11:13:04;;;;;;;4.97;3.20;;;;;;;22.77;46.28;98790.72;5036697;28;20028;-71
2021/09/17 11:15:29;;;;;;;5.68;2.88;;;;;;;22.42;47.43;98798.00;5037285;28;20515;-71
2021/09/17 11:18:01;;;;;;;5.32;2.90;;;;;;;22.34;47.34;98790.31;5033943;28;20039;-70
2021/09/17 11:20:30;;;;;;;4.57;2.88;;;;;;;22.66;47.76;98791.84;5051048;28;20025;-71
2021/09/17 11:23:06;;;;;;;4.93;3.33;;;;;;;22.57;47.69;98785.28;5041710;28;20035;-71